sensor_id;sensor_type;location;lat;lon;timestamp;temperature;humidity
1361;DHT22;674;45.552;-122.600;2023-07-20T00:02:19;33.10;1.00
1361;DHT22;674;45.552;-122.600;2023-07-20T00:04:48;33.10;1.00
1361;DHT22;674;45.552;-122.600;2023-07-20T00:07:17;33.00;1.00
1361;DHT22;674;45.552;-122.600;2023-07-20T00:09:45;32.90;1.00
1361;DHT22;674;45.552;-122.600;2023-07-20T00:12:14;32.90;1.00
1361;DHT22;674;45.552;-122.600;2023-07-20T00:14:43;32.90;1.00
1361;DHT22;674;45.552;-122.600;2023-07-20T00:17:11;32.90;1.00
1361;DHT22;674;45.552;-122.600;2023-07-20T00:19:40;32.90;1.00
1361;DHT22;674;45.552;-122.600;2023-07-20T00:22:08;32.90;1.00
1361;DHT22;674;45.552;-122.600;2023-07-20T00:24:37;32.90;1.00
1361;DHT22;674;45.552;-122.600;2023-07-20T00:27:06;32.80;1.00
1361;DHT22;674;45.552;-122.600;2023-07-20T00:29:34;32.80;1.00
1361;DHT22;674;45.552;-122.600;2023-07-20T00:32:04;32.80;1.00
1361;DHT22;674;45.552;-122.600;2023-07-20T00:34:33;32.80;1.00
1361;DHT22;674;45.552;-122.600;2023-07-20T00:37:01;32.80;1.00
1361;DHT22;674;45.552;-122.600;2023-07-20T00:39:30;32.80;1.00
1361;DHT22;674;45.552;-122.600;2023-07-20T00:41:59;32.70;1.00
1361;DHT22;674;45.552;-122.600;2023-07-20T00:44:28;32.70;1.00
1361;DHT22;674;45.552;-122.600;2023-07-20T00:46:57;32.70;1.00
1361;DHT22;674;45.552;-122.600;2023-07-20T00:49:25;32.70;1.00
1361;DHT22;674;45.552;-122.600;2023-07-20T00:51:54;32.70;1.00
1361;DHT22;674;45.552;-122.600;2023-07-20T00:54:23;32.80;1.00
1361;DHT22;674;45.552;-122.600;2023-07-20T00:56:53;32.70;1.00
1361;DHT22;674;45.552;-122.600;2023-07-20T00:59:24;32.50;1.00
1361;DHT22;674;45.552;-122.600;2023-07-20T01:01:55;32.50;1.00
1361;DHT22;674;45.552;-122.600;2023-07-20T01:04:24;32.50;1.00
1361;DHT22;674;45.552;-122.600;2023-07-20T01:07:14;32.50;1.00
1361;DHT22;674;45.552;-122.600;2023-07-20T01:12:52;32.50;1.00
1361;DHT22;674;45.552;-122.600;2023-07-20T01:15:21;32.50;1.00
1361;DHT22;674;45.552;-122.600;2023-07-20T01:17:50;32.50;1.00
1361;DHT22;674;45.552;-122.600;2023-07-20T01:20:20;32.60;1.00
1361;DHT22;674;45.552;-122.600;2023-07-20T01:23:19;32.50;1.00
1361;DHT22;674;45.552;-122.600;2023-07-20T01:26:18;32.50;1.00
1361;DHT22;674;45.552;-122.600;2023-07-20T01:31:54;32.40;1.00
1361;DHT22;674;45.552;-122.600;2023-07-20T01:34:25;32.40;1.00
1361;DHT22;674;45.552;-122.600;2023-07-20T01:36:55;32.50;1.00
1361;DHT22;674;45.552;-122.600;2023-07-20T01:39:24;32.40;1.00
1361;DHT22;674;45.552;-122.600;2023-07-20T01:41:53;32.40;1.00
1361;DHT22;674;45.552;-122.600;2023-07-20T01:44:22;32.40;1.00
1361;DHT22;674;45.552;-122.600;2023-07-20T01:46:50;32.40;1.00
1361;DHT22;674;45.552;-122.600;2023-07-20T01:49:19;32.40;1.00
1361;DHT22;674;45.552;-122.600;2023-07-20T01:51:47;32.40;1.00
1361;DHT22;674;45.552;-122.600;2023-07-20T01:54:16;32.30;1.00
1361;DHT22;674;45.552;-122.600;2023-07-20T01:56:45;32.30;1.00
1361;DHT22;674;45.552;-122.600;2023-07-20T01:59:13;32.30;1.00
1361;DHT22;674;45.552;-122.600;2023-07-20T02:01:42;32.30;1.00
1361;DHT22;674;45.552;-122.600;2023-07-20T02:04:11;32.20;1.00
1361;DHT22;674;45.552;-122.600;2023-07-20T02:06:39;32.20;1.00
1361;DHT22;674;45.552;-122.600;2023-07-20T02:09:08;32.10;1.00
1361;DHT22;674;45.552;-122.600;2023-07-20T02:11:36;32.10;1.00
1361;DHT22;674;45.552;-122.600;2023-07-20T02:14:05;32.00;1.00
1361;DHT22;674;45.552;-122.600;2023-07-20T02:16:34;31.90;1.00
1361;DHT22;674;45.552;-122.600;2023-07-20T02:19:02;31.90;1.00
1361;DHT22;674;45.552;-122.600;2023-07-20T02:21:32;31.70;1.00
1361;DHT22;674;45.552;-122.600;2023-07-20T02:24:01;31.70;1.00
1361;DHT22;674;45.552;-122.600;2023-07-20T02:26:30;31.60;1.00
1361;DHT22;674;45.552;-122.600;2023-07-20T02:28:58;31.60;1.00
1361;DHT22;674;45.552;-122.600;2023-07-20T02:31:27;31.60;1.00
1361;DHT22;674;45.552;-122.600;2023-07-20T02:33:56;31.50;1.00
1361;DHT22;674;45.552;-122.600;2023-07-20T02:36:24;31.40;1.00
1361;DHT22;674;45.552;-122.600;2023-07-20T02:38:53;31.30;1.00
1361;DHT22;674;45.552;-122.600;2023-07-20T02:41:23;31.20;1.00
1361;DHT22;674;45.552;-122.600;2023-07-20T02:43:51;31.20;1.00
1361;DHT22;674;45.552;-122.600;2023-07-20T02:46:20;31.10;1.00
1361;DHT22;674;45.552;-122.600;2023-07-20T02:48:49;31.00;1.00
1361;DHT22;674;45.552;-122.600;2023-07-20T02:51:17;30.90;1.00
1361;DHT22;674;45.552;-122.600;2023-07-20T02:53:46;30.90;1.00
1361;DHT22;674;45.552;-122.600;2023-07-20T02:56:14;30.70;1.00
1361;DHT22;674;45.552;-122.600;2023-07-20T02:58:43;30.70;1.00
1361;DHT22;674;45.552;-122.600;2023-07-20T03:01:13;30.50;1.00
1361;DHT22;674;45.552;-122.600;2023-07-20T03:03:43;30.40;1.00
1361;DHT22;674;45.552;-122.600;2023-07-20T03:06:15;30.40;1.00
1361;DHT22;674;45.552;-122.600;2023-07-20T03:08:44;30.30;1.00
1361;DHT22;674;45.552;-122.600;2023-07-20T03:11:16;30.20;1.00
1361;DHT22;674;45.552;-122.600;2023-07-20T03:13:45;30.10;1.00
1361;DHT22;674;45.552;-122.600;2023-07-20T03:16:17;30.00;1.00
1361;DHT22;674;45.552;-122.600;2023-07-20T03:18:46;29.90;1.00
1361;DHT22;674;45.552;-122.600;2023-07-20T03:21:15;29.70;1.00
1361;DHT22;674;45.552;-122.600;2023-07-20T03:23:43;29.70;1.00
1361;DHT22;674;45.552;-122.600;2023-07-20T03:26:12;29.60;1.00
1361;DHT22;674;45.552;-122.600;2023-07-20T03:28:41;29.60;1.00
1361;DHT22;674;45.552;-122.600;2023-07-20T03:31:09;29.40;1.00
1361;DHT22;674;45.552;-122.600;2023-07-20T03:33:38;29.40;1.00
1361;DHT22;674;45.552;-122.600;2023-07-20T03:36:09;29.30;1.00
1361;DHT22;674;45.552;-122.600;2023-07-20T03:38:38;29.30;1.00
1361;DHT22;674;45.552;-122.600;2023-07-20T03:41:06;29.20;1.00
1361;DHT22;674;45.552;-122.600;2023-07-20T03:43:35;29.00;1.00
1361;DHT22;674;45.552;-122.600;2023-07-20T03:46:04;29.00;1.00
1361;DHT22;674;45.552;-122.600;2023-07-20T03:48:35;28.90;1.00
1361;DHT22;674;45.552;-122.600;2023-07-20T03:51:04;28.80;1.00
1361;DHT22;674;45.552;-122.600;2023-07-20T03:53:33;28.60;1.00
1361;DHT22;674;45.552;-122.600;2023-07-20T03:56:01;28.50;1.00
1361;DHT22;674;45.552;-122.600;2023-07-20T03:58:30;28.50;1.00
1361;DHT22;674;45.552;-122.600;2023-07-20T04:00:59;28.30;1.00
1361;DHT22;674;45.552;-122.600;2023-07-20T04:03:28;28.20;1.00
1361;DHT22;674;45.552;-122.600;2023-07-20T04:05:57;28.20;1.00
1361;DHT22;674;45.552;-122.600;2023-07-20T04:08:26;28.00;1.00
1361;DHT22;674;45.552;-122.600;2023-07-20T04:10:54;27.90;1.00
1361;DHT22;674;45.552;-122.600;2023-07-20T04:13:23;27.80;1.00
1361;DHT22;674;45.552;-122.600;2023-07-20T04:15:52;27.70;1.00
1361;DHT22;674;45.552;-122.600;2023-07-20T04:18:20;27.60;1.00
1361;DHT22;674;45.552;-122.600;2023-07-20T04:20:49;27.50;1.00
1361;DHT22;674;45.552;-122.600;2023-07-20T04:23:18;27.50;1.00
1361;DHT22;674;45.552;-122.600;2023-07-20T04:25:46;27.40;1.00
1361;DHT22;674;45.552;-122.600;2023-07-20T04:28:15;27.40;1.00
1361;DHT22;674;45.552;-122.600;2023-07-20T04:30:43;27.30;1.00
1361;DHT22;674;45.552;-122.600;2023-07-20T04:33:12;27.30;1.00
1361;DHT22;674;45.552;-122.600;2023-07-20T04:38:19;27.10;1.00
1361;DHT22;674;45.552;-122.600;2023-07-20T04:40:49;27.10;1.00
1361;DHT22;674;45.552;-122.600;2023-07-20T04:43:20;27.00;1.00
1361;DHT22;674;45.552;-122.600;2023-07-20T04:45:49;27.00;1.00
1361;DHT22;674;45.552;-122.600;2023-07-20T04:48:18;26.90;1.00
1361;DHT22;674;45.552;-122.600;2023-07-20T04:50:50;26.80;1.00
1361;DHT22;674;45.552;-122.600;2023-07-20T04:53:18;26.70;1.00
1361;DHT22;674;45.552;-122.600;2023-07-20T04:55:51;26.60;1.00
1361;DHT22;674;45.552;-122.600;2023-07-20T04:58:21;26.60;1.00
1361;DHT22;674;45.552;-122.600;2023-07-20T05:00:51;26.50;1.00
1361;DHT22;674;45.552;-122.600;2023-07-20T05:03:22;26.40;1.00
1361;DHT22;674;45.552;-122.600;2023-07-20T05:05:50;26.30;1.00
1361;DHT22;674;45.552;-122.600;2023-07-20T05:08:19;26.30;1.00
1361;DHT22;674;45.552;-122.600;2023-07-20T05:10:50;26.20;1.00
1361;DHT22;674;45.552;-122.600;2023-07-20T05:13:19;26.10;1.00
1361;DHT22;674;45.552;-122.600;2023-07-20T05:15:51;26.00;1.00
1361;DHT22;674;45.552;-122.600;2023-07-20T05:18:21;25.90;1.00
1361;DHT22;674;45.552;-122.600;2023-07-20T05:20:50;25.80;1.00
1361;DHT22;674;45.552;-122.600;2023-07-20T05:23:19;25.80;1.00
1361;DHT22;674;45.552;-122.600;2023-07-20T05:25:58;25.70;1.00
1361;DHT22;674;45.552;-122.600;2023-07-20T05:28:27;25.70;1.00
1361;DHT22;674;45.552;-122.600;2023-07-20T05:30:56;25.60;1.00
1361;DHT22;674;45.552;-122.600;2023-07-20T05:33:27;25.50;1.00
1361;DHT22;674;45.552;-122.600;2023-07-20T05:35:56;25.50;1.00
1361;DHT22;674;45.552;-122.600;2023-07-20T05:38:24;25.40;1.00
1361;DHT22;674;45.552;-122.600;2023-07-20T05:40:59;25.30;1.00
1361;DHT22;674;45.552;-122.600;2023-07-20T05:43:31;25.20;1.00
1361;DHT22;674;45.552;-122.600;2023-07-20T05:46:00;25.10;1.00
1361;DHT22;674;45.552;-122.600;2023-07-20T05:48:28;25.10;1.00
1361;DHT22;674;45.552;-122.600;2023-07-20T05:50:57;25.00;1.00
1361;DHT22;674;45.552;-122.600;2023-07-20T05:53:26;24.90;1.00
1361;DHT22;674;45.552;-122.600;2023-07-20T05:55:55;24.90;1.00
1361;DHT22;674;45.552;-122.600;2023-07-20T05:58:23;24.80;1.00
1361;DHT22;674;45.552;-122.600;2023-07-20T06:00:53;24.70;1.00
1361;DHT22;674;45.552;-122.600;2023-07-20T06:03:21;24.60;1.00
1361;DHT22;674;45.552;-122.600;2023-07-20T06:05:50;24.50;1.00
1361;DHT22;674;45.552;-122.600;2023-07-20T06:08:20;24.50;1.00
1361;DHT22;674;45.552;-122.600;2023-07-20T06:10:50;24.30;1.00
1361;DHT22;674;45.552;-122.600;2023-07-20T06:13:20;24.30;1.00
1361;DHT22;674;45.552;-122.600;2023-07-20T06:15:49;24.30;1.00
1361;DHT22;674;45.552;-122.600;2023-07-20T06:18:18;24.20;1.00
1361;DHT22;674;45.552;-122.600;2023-07-20T06:20:50;24.20;1.00
1361;DHT22;674;45.552;-122.600;2023-07-20T06:23:20;24.10;1.00
1361;DHT22;674;45.552;-122.600;2023-07-20T06:25:49;24.10;1.00
1361;DHT22;674;45.552;-122.600;2023-07-20T06:28:17;24.10;1.00
1361;DHT22;674;45.552;-122.600;2023-07-20T06:30:46;24.10;1.00
1361;DHT22;674;45.552;-122.600;2023-07-20T06:33:15;24.00;1.00
1361;DHT22;674;45.552;-122.600;2023-07-20T06:35:43;23.90;1.00
1361;DHT22;674;45.552;-122.600;2023-07-20T06:38:12;23.80;1.00
1361;DHT22;674;45.552;-122.600;2023-07-20T06:40:43;23.70;1.00
1361;DHT22;674;45.552;-122.600;2023-07-20T06:43:12;23.70;1.00
1361;DHT22;674;45.552;-122.600;2023-07-20T06:45:43;23.60;1.00
1361;DHT22;674;45.552;-122.600;2023-07-20T06:48:12;23.60;1.00
1361;DHT22;674;45.552;-122.600;2023-07-20T06:50:40;23.50;1.00
1361;DHT22;674;45.552;-122.600;2023-07-20T06:53:11;23.50;1.00
1361;DHT22;674;45.552;-122.600;2023-07-20T06:55:41;23.40;1.00
1361;DHT22;674;45.552;-122.600;2023-07-20T06:58:11;23.40;1.00
1361;DHT22;674;45.552;-122.600;2023-07-20T07:00:39;23.30;1.00
1361;DHT22;674;45.552;-122.600;2023-07-20T07:03:08;23.20;1.00
1361;DHT22;674;45.552;-122.600;2023-07-20T07:05:37;23.10;1.00
1361;DHT22;674;45.552;-122.600;2023-07-20T07:08:06;23.10;1.00
1361;DHT22;674;45.552;-122.600;2023-07-20T07:10:37;23.10;1.00
1361;DHT22;674;45.552;-122.600;2023-07-20T07:13:06;23.00;1.00
1361;DHT22;674;45.552;-122.600;2023-07-20T07:15:35;22.90;1.00
1361;DHT22;674;45.552;-122.600;2023-07-20T07:18:05;22.90;1.00
1361;DHT22;674;45.552;-122.600;2023-07-20T07:20:34;22.80;1.00
1361;DHT22;674;45.552;-122.600;2023-07-20T07:23:02;22.80;1.00
1361;DHT22;674;45.552;-122.600;2023-07-20T07:25:31;22.70;1.00
1361;DHT22;674;45.552;-122.600;2023-07-20T07:28:00;22.60;1.00
1361;DHT22;674;45.552;-122.600;2023-07-20T07:30:29;22.50;1.00
1361;DHT22;674;45.552;-122.600;2023-07-20T07:33:00;22.50;1.00
1361;DHT22;674;45.552;-122.600;2023-07-20T07:35:29;22.40;1.00
1361;DHT22;674;45.552;-122.600;2023-07-20T07:37:57;22.30;1.00
1361;DHT22;674;45.552;-122.600;2023-07-20T07:40:45;22.30;1.00
1361;DHT22;674;45.552;-122.600;2023-07-20T07:43:14;22.20;1.00
1361;DHT22;674;45.552;-122.600;2023-07-20T07:45:43;22.10;1.00
1361;DHT22;674;45.552;-122.600;2023-07-20T07:48:11;22.10;1.00
1361;DHT22;674;45.552;-122.600;2023-07-20T07:50:42;22.00;1.00
1361;DHT22;674;45.552;-122.600;2023-07-20T07:53:10;22.00;1.00
1361;DHT22;674;45.552;-122.600;2023-07-20T07:55:39;21.90;1.00
1361;DHT22;674;45.552;-122.600;2023-07-20T07:58:08;21.80;1.00
1361;DHT22;674;45.552;-122.600;2023-07-20T08:00:36;21.80;1.00
1361;DHT22;674;45.552;-122.600;2023-07-20T08:03:06;21.70;1.00
1361;DHT22;674;45.552;-122.600;2023-07-20T08:05:36;21.70;1.00
1361;DHT22;674;45.552;-122.600;2023-07-20T08:08:05;21.60;1.00
1361;DHT22;674;45.552;-122.600;2023-07-20T08:10:34;21.50;1.00
1361;DHT22;674;45.552;-122.600;2023-07-20T08:13:02;21.50;1.00
1361;DHT22;674;45.552;-122.600;2023-07-20T08:15:31;21.50;1.00
1361;DHT22;674;45.552;-122.600;2023-07-20T08:18:00;21.40;1.00
1361;DHT22;674;45.552;-122.600;2023-07-20T08:20:28;21.30;1.00
1361;DHT22;674;45.552;-122.600;2023-07-20T08:22:57;21.30;1.00
1361;DHT22;674;45.552;-122.600;2023-07-20T08:25:27;21.20;1.00
1361;DHT22;674;45.552;-122.600;2023-07-20T08:27:56;21.20;1.00
1361;DHT22;674;45.552;-122.600;2023-07-20T08:30:24;21.10;1.00
1361;DHT22;674;45.552;-122.600;2023-07-20T08:32:53;21.10;1.00
1361;DHT22;674;45.552;-122.600;2023-07-20T08:35:21;21.10;1.00
1361;DHT22;674;45.552;-122.600;2023-07-20T08:37:50;21.00;1.00
1361;DHT22;674;45.552;-122.600;2023-07-20T08:40:19;21.00;1.00
1361;DHT22;674;45.552;-122.600;2023-07-20T08:42:48;21.00;1.00
1361;DHT22;674;45.552;-122.600;2023-07-20T08:45:17;20.90;1.00
1361;DHT22;674;45.552;-122.600;2023-07-20T08:47:47;20.90;1.00
1361;DHT22;674;45.552;-122.600;2023-07-20T08:50:17;20.90;1.00
1361;DHT22;674;45.552;-122.600;2023-07-20T08:52:47;20.80;1.00
1361;DHT22;674;45.552;-122.600;2023-07-20T08:55:16;20.80;1.00
1361;DHT22;674;45.552;-122.600;2023-07-20T08:57:46;20.80;1.00
1361;DHT22;674;45.552;-122.600;2023-07-20T09:00:20;20.70;1.00
1361;DHT22;674;45.552;-122.600;2023-07-20T09:02:50;20.70;1.00
1361;DHT22;674;45.552;-122.600;2023-07-20T09:05:24;20.60;1.00
1361;DHT22;674;45.552;-122.600;2023-07-20T09:07:54;20.60;1.00
1361;DHT22;674;45.552;-122.600;2023-07-20T09:10:23;20.50;1.00
1361;DHT22;674;45.552;-122.600;2023-07-20T09:12:52;20.50;1.00
1361;DHT22;674;45.552;-122.600;2023-07-20T09:15:23;20.50;1.00
1361;DHT22;674;45.552;-122.600;2023-07-20T09:17:52;20.50;1.00
1361;DHT22;674;45.552;-122.600;2023-07-20T09:20:22;20.40;1.00
1361;DHT22;674;45.552;-122.600;2023-07-20T09:22:51;20.40;1.00
1361;DHT22;674;45.552;-122.600;2023-07-20T09:25:22;20.40;1.00
1361;DHT22;674;45.552;-122.600;2023-07-20T09:27:55;20.30;1.00
1361;DHT22;674;45.552;-122.600;2023-07-20T09:30:26;20.30;1.00
1361;DHT22;674;45.552;-122.600;2023-07-20T09:32:57;20.30;1.00
1361;DHT22;674;45.552;-122.600;2023-07-20T09:35:27;20.30;1.00
1361;DHT22;674;45.552;-122.600;2023-07-20T09:38:09;20.20;1.00
1361;DHT22;674;45.552;-122.600;2023-07-20T09:40:41;20.20;1.00
1361;DHT22;674;45.552;-122.600;2023-07-20T09:43:13;20.20;1.00
1361;DHT22;674;45.552;-122.600;2023-07-20T09:45:46;20.20;1.00
1361;DHT22;674;45.552;-122.600;2023-07-20T09:48:17;20.10;1.00
1361;DHT22;674;45.552;-122.600;2023-07-20T09:50:53;20.10;1.00
1361;DHT22;674;45.552;-122.600;2023-07-20T09:53:25;20.10;1.00
1361;DHT22;674;45.552;-122.600;2023-07-20T09:55:54;20.10;1.00
1361;DHT22;674;45.552;-122.600;2023-07-20T09:58:23;20.00;1.00
1361;DHT22;674;45.552;-122.600;2023-07-20T10:00:57;20.00;1.00
1361;DHT22;674;45.552;-122.600;2023-07-20T10:03:29;20.00;1.00
1361;DHT22;674;45.552;-122.600;2023-07-20T10:06:06;19.90;1.00
1361;DHT22;674;45.552;-122.600;2023-07-20T10:08:39;19.90;1.00
1361;DHT22;674;45.552;-122.600;2023-07-20T10:11:12;19.90;1.00
1361;DHT22;674;45.552;-122.600;2023-07-20T10:13:44;19.90;1.00
1361;DHT22;674;45.552;-122.600;2023-07-20T10:16:22;19.80;1.00
1361;DHT22;674;45.552;-122.600;2023-07-20T10:19:11;19.80;1.00
1361;DHT22;674;45.552;-122.600;2023-07-20T10:21:48;19.70;1.00
1361;DHT22;674;45.552;-122.600;2023-07-20T10:24:26;19.70;1.00
1361;DHT22;674;45.552;-122.600;2023-07-20T10:26:55;19.60;1.00
1361;DHT22;674;45.552;-122.600;2023-07-20T10:29:29;19.60;1.00
1361;DHT22;674;45.552;-122.600;2023-07-20T10:31:58;19.50;1.00
1361;DHT22;674;45.552;-122.600;2023-07-20T10:34:28;19.50;1.00
1361;DHT22;674;45.552;-122.600;2023-07-20T10:37:00;19.50;1.00
1361;DHT22;674;45.552;-122.600;2023-07-20T10:39:31;19.50;1.00
1361;DHT22;674;45.552;-122.600;2023-07-20T10:42:02;19.50;1.00
1361;DHT22;674;45.552;-122.600;2023-07-20T10:44:31;19.40;1.00
1361;DHT22;674;45.552;-122.600;2023-07-20T10:47:13;19.40;1.00
1361;DHT22;674;45.552;-122.600;2023-07-20T10:50:01;19.40;1.00
1361;DHT22;674;45.552;-122.600;2023-07-20T10:52:42;19.40;1.00
1361;DHT22;674;45.552;-122.600;2023-07-20T10:55:20;19.30;1.00
1361;DHT22;674;45.552;-122.600;2023-07-20T10:58:25;19.30;1.00
1361;DHT22;674;45.552;-122.600;2023-07-20T11:01:04;19.20;1.00
1361;DHT22;674;45.552;-122.600;2023-07-20T11:03:36;19.20;1.00
1361;DHT22;674;45.552;-122.600;2023-07-20T11:11:46;19.00;1.00
1361;DHT22;674;45.552;-122.600;2023-07-20T11:14:23;18.90;1.00
1361;DHT22;674;45.552;-122.600;2023-07-20T11:16:53;18.90;1.00
1361;DHT22;674;45.552;-122.600;2023-07-20T11:19:26;18.90;1.00
1361;DHT22;674;45.552;-122.600;2023-07-20T11:21:58;18.80;1.00
1361;DHT22;674;45.552;-122.600;2023-07-20T11:24:31;18.80;1.00
1361;DHT22;674;45.552;-122.600;2023-07-20T11:27:03;18.80;1.00
1361;DHT22;674;45.552;-122.600;2023-07-20T11:29:37;18.80;1.00
1361;DHT22;674;45.552;-122.600;2023-07-20T11:32:06;18.80;1.00
1361;DHT22;674;45.552;-122.600;2023-07-20T11:34:35;18.80;1.00
1361;DHT22;674;45.552;-122.600;2023-07-20T11:37:05;18.80;1.00
1361;DHT22;674;45.552;-122.600;2023-07-20T11:39:37;18.70;1.00
1361;DHT22;674;45.552;-122.600;2023-07-20T11:42:07;18.70;1.00
1361;DHT22;674;45.552;-122.600;2023-07-20T11:44:36;18.70;1.00
1361;DHT22;674;45.552;-122.600;2023-07-20T11:47:12;18.70;1.00
1361;DHT22;674;45.552;-122.600;2023-07-20T11:49:42;18.60;1.00
1361;DHT22;674;45.552;-122.600;2023-07-20T11:52:19;18.60;1.00
1361;DHT22;674;45.552;-122.600;2023-07-20T11:54:47;18.60;1.00
1361;DHT22;674;45.552;-122.600;2023-07-20T11:57:20;18.50;1.00
1361;DHT22;674;45.552;-122.600;2023-07-20T12:00:02;18.50;1.00
1361;DHT22;674;45.552;-122.600;2023-07-20T12:02:37;18.50;1.00
1361;DHT22;674;45.552;-122.600;2023-07-20T12:05:09;18.50;1.00
1361;DHT22;674;45.552;-122.600;2023-07-20T12:07:39;18.40;1.00
1361;DHT22;674;45.552;-122.600;2023-07-20T12:10:09;18.50;1.00
1361;DHT22;674;45.552;-122.600;2023-07-20T12:12:40;18.40;1.00
1361;DHT22;674;45.552;-122.600;2023-07-20T12:15:25;18.30;1.00
1361;DHT22;674;45.552;-122.600;2023-07-20T12:18:01;18.30;1.00
1361;DHT22;674;45.552;-122.600;2023-07-20T12:20:35;18.30;1.00
1361;DHT22;674;45.552;-122.600;2023-07-20T12:23:09;18.20;1.00
1361;DHT22;674;45.552;-122.600;2023-07-20T12:25:39;18.20;1.00
1361;DHT22;674;45.552;-122.600;2023-07-20T12:28:15;18.20;1.00
1361;DHT22;674;45.552;-122.600;2023-07-20T12:30:45;18.20;1.00
1361;DHT22;674;45.552;-122.600;2023-07-20T12:33:14;18.10;1.00
1361;DHT22;674;45.552;-122.600;2023-07-20T12:35:44;18.10;1.00
1361;DHT22;674;45.552;-122.600;2023-07-20T12:38:12;18.10;1.00
1361;DHT22;674;45.552;-122.600;2023-07-20T12:40:41;18.00;1.00
1361;DHT22;674;45.552;-122.600;2023-07-20T12:43:10;18.00;1.00
1361;DHT22;674;45.552;-122.600;2023-07-20T12:45:38;17.90;1.00
1361;DHT22;674;45.552;-122.600;2023-07-20T12:48:07;18.00;1.00
1361;DHT22;674;45.552;-122.600;2023-07-20T12:50:35;18.00;1.00
1361;DHT22;674;45.552;-122.600;2023-07-20T12:53:04;17.90;1.00
1361;DHT22;674;45.552;-122.600;2023-07-20T12:55:33;17.90;1.00
1361;DHT22;674;45.552;-122.600;2023-07-20T12:58:08;17.90;1.00
1361;DHT22;674;45.552;-122.600;2023-07-20T13:00:36;17.80;1.00
1361;DHT22;674;45.552;-122.600;2023-07-20T13:03:06;17.90;1.00
1361;DHT22;674;45.552;-122.600;2023-07-20T13:05:36;17.80;1.00
1361;DHT22;674;45.552;-122.600;2023-07-20T13:08:08;17.80;1.00
1361;DHT22;674;45.552;-122.600;2023-07-20T13:10:39;17.80;1.00
1361;DHT22;674;45.552;-122.600;2023-07-20T13:13:08;17.80;1.00
1361;DHT22;674;45.552;-122.600;2023-07-20T13:15:44;17.80;1.00
1361;DHT22;674;45.552;-122.600;2023-07-20T13:18:14;17.80;1.00
1361;DHT22;674;45.552;-122.600;2023-07-20T13:20:43;17.80;1.00
1361;DHT22;674;45.552;-122.600;2023-07-20T13:23:11;17.80;1.00
1361;DHT22;674;45.552;-122.600;2023-07-20T13:25:40;17.90;1.00
1361;DHT22;674;45.552;-122.600;2023-07-20T13:28:09;17.80;1.00
1361;DHT22;674;45.552;-122.600;2023-07-20T13:30:37;17.90;1.00
1361;DHT22;674;45.552;-122.600;2023-07-20T13:33:07;17.90;1.00
1361;DHT22;674;45.552;-122.600;2023-07-20T13:35:43;17.80;1.00
1361;DHT22;674;45.552;-122.600;2023-07-20T13:38:14;17.80;1.00
1361;DHT22;674;45.552;-122.600;2023-07-20T13:40:44;17.90;1.00
1361;DHT22;674;45.552;-122.600;2023-07-20T13:43:12;17.90;1.00
1361;DHT22;674;45.552;-122.600;2023-07-20T13:45:41;17.90;1.00
1361;DHT22;674;45.552;-122.600;2023-07-20T13:48:09;18.00;1.00
1361;DHT22;674;45.552;-122.600;2023-07-20T13:50:38;18.00;1.00
1361;DHT22;674;45.552;-122.600;2023-07-20T13:53:08;18.00;1.00
1361;DHT22;674;45.552;-122.600;2023-07-20T13:55:40;18.00;1.00
1361;DHT22;674;45.552;-122.600;2023-07-20T13:58:11;18.10;1.00
1361;DHT22;674;45.552;-122.600;2023-07-20T14:00:40;18.10;1.00
1361;DHT22;674;45.552;-122.600;2023-07-20T14:03:09;18.10;1.00
1361;DHT22;674;45.552;-122.600;2023-07-20T14:05:40;18.20;1.00
1361;DHT22;674;45.552;-122.600;2023-07-20T14:08:11;18.20;1.00
1361;DHT22;674;45.552;-122.600;2023-07-20T14:10:40;18.30;1.00
1361;DHT22;674;45.552;-122.600;2023-07-20T14:13:11;18.30;1.00
1361;DHT22;674;45.552;-122.600;2023-07-20T14:15:40;18.40;1.00
1361;DHT22;674;45.552;-122.600;2023-07-20T14:18:09;18.40;1.00
1361;DHT22;674;45.552;-122.600;2023-07-20T14:20:37;18.50;1.00
1361;DHT22;674;45.552;-122.600;2023-07-20T14:23:06;18.50;1.00
1361;DHT22;674;45.552;-122.600;2023-07-20T14:25:34;18.50;1.00
1361;DHT22;674;45.552;-122.600;2023-07-20T14:28:04;18.60;1.00
1361;DHT22;674;45.552;-122.600;2023-07-20T14:30:33;18.60;1.00
1361;DHT22;674;45.552;-122.600;2023-07-20T14:33:01;18.80;1.00
1361;DHT22;674;45.552;-122.600;2023-07-20T14:35:30;18.80;1.00
1361;DHT22;674;45.552;-122.600;2023-07-20T14:37:59;18.90;1.00
1361;DHT22;674;45.552;-122.600;2023-07-20T14:40:28;19.00;1.00
1361;DHT22;674;45.552;-122.600;2023-07-20T14:42:59;19.00;1.00
1361;DHT22;674;45.552;-122.600;2023-07-20T14:45:31;19.10;1.00
1361;DHT22;674;45.552;-122.600;2023-07-20T14:47:59;19.20;1.00
1361;DHT22;674;45.552;-122.600;2023-07-20T14:50:28;19.20;1.00
1361;DHT22;674;45.552;-122.600;2023-07-20T14:52:57;19.20;1.00
1361;DHT22;674;45.552;-122.600;2023-07-20T14:55:31;19.30;1.00
1361;DHT22;674;45.552;-122.600;2023-07-20T14:58:00;19.30;1.00
1361;DHT22;674;45.552;-122.600;2023-07-20T15:00:28;19.30;1.00
1361;DHT22;674;45.552;-122.600;2023-07-20T15:02:58;19.30;1.00
1361;DHT22;674;45.552;-122.600;2023-07-20T15:05:26;19.30;1.00
1361;DHT22;674;45.552;-122.600;2023-07-20T15:07:55;19.30;1.00
1361;DHT22;674;45.552;-122.600;2023-07-20T15:10:23;19.10;1.00
1361;DHT22;674;45.552;-122.600;2023-07-20T15:12:52;19.10;1.00
1361;DHT22;674;45.552;-122.600;2023-07-20T15:15:23;19.20;1.00
1361;DHT22;674;45.552;-122.600;2023-07-20T15:17:52;19.30;1.00
1361;DHT22;674;45.552;-122.600;2023-07-20T15:20:22;19.30;1.00
1361;DHT22;674;45.552;-122.600;2023-07-20T15:22:51;19.40;1.00
1361;DHT22;674;45.552;-122.600;2023-07-20T15:25:19;19.50;1.00
1361;DHT22;674;45.552;-122.600;2023-07-20T15:27:48;19.60;1.00
1361;DHT22;674;45.552;-122.600;2023-07-20T15:30:18;19.70;1.00
1361;DHT22;674;45.552;-122.600;2023-07-20T15:32:49;19.80;1.00
1361;DHT22;674;45.552;-122.600;2023-07-20T15:35:21;19.70;1.00
1361;DHT22;674;45.552;-122.600;2023-07-20T15:37:49;19.80;1.00
1361;DHT22;674;45.552;-122.600;2023-07-20T15:40:18;19.90;1.00
1361;DHT22;674;45.552;-122.600;2023-07-20T15:42:47;20.00;1.00
1361;DHT22;674;45.552;-122.600;2023-07-20T15:45:20;20.10;1.00
1361;DHT22;674;45.552;-122.600;2023-07-20T15:47:48;20.10;1.00
1361;DHT22;674;45.552;-122.600;2023-07-20T15:50:17;20.20;1.00
1361;DHT22;674;45.552;-122.600;2023-07-20T15:52:48;20.30;1.00
1361;DHT22;674;45.552;-122.600;2023-07-20T15:55:17;20.30;1.00
1361;DHT22;674;45.552;-122.600;2023-07-20T15:57:48;20.30;1.00
1361;DHT22;674;45.552;-122.600;2023-07-20T16:00:17;20.30;1.00
1361;DHT22;674;45.552;-122.600;2023-07-20T16:02:46;20.40;1.00
1361;DHT22;674;45.552;-122.600;2023-07-20T16:05:16;20.50;1.00
1361;DHT22;674;45.552;-122.600;2023-07-20T16:07:45;20.50;1.00
1361;DHT22;674;45.552;-122.600;2023-07-20T16:10:13;20.60;1.00
1361;DHT22;674;45.552;-122.600;2023-07-20T16:12:42;20.70;1.00
1361;DHT22;674;45.552;-122.600;2023-07-20T16:15:11;20.70;1.00
1361;DHT22;674;45.552;-122.600;2023-07-20T16:17:39;20.70;1.00
1361;DHT22;674;45.552;-122.600;2023-07-20T16:20:11;20.70;1.00